Terminal Aerodrome Forecast
Issued by NWS

Home | Current Version | Previous Version | Text Only | Print | Product List | Glossary On
Versions: 1 2 3 4 5 6 7 8 9 10 11 12 13 14
000
FTUS46 KPDT 181722
TAFPSC
TAF
KPSC 181722Z 1818/1918 22008KT P6SM VCSH BKN080 OVC100
     FM182200 22012KT P6SM SCT080 OVC100
     FM190500 21009KT P6SM OVC100
     FM191500 20006KT P6SM VCSH BKN070 OVC090=

USA.gov is the U.S. government's official web portal to all federal, state and local government web resources and services.